createdAt,value
2023-04-23T00:00:58.099Z,14.41
2023-04-23T00:03:29.722Z,14.40
2023-04-23T00:06:01.063Z,14.38
2023-04-23T00:08:35.092Z,14.36
2023-04-23T00:11:06.411Z,14.33
2023-04-23T00:13:36.616Z,14.30
2023-04-23T00:16:07.456Z,14.28
2023-04-23T00:18:37.859Z,14.26
2023-04-23T00:21:08.893Z,14.22
2023-04-23T00:23:42.062Z,14.22
2023-04-23T00:26:12.088Z,14.19
2023-04-23T00:28:42.173Z,14.17
2023-04-23T00:31:12.190Z,14.14
2023-04-23T00:33:42.188Z,14.11
2023-04-23T00:36:12.241Z,14.10
2023-04-23T00:38:44.782Z,14.08
2023-04-23T00:41:15.057Z,14.05
2023-04-23T00:43:45.978Z,14.04
2023-04-23T00:46:16.987Z,14.02
2023-04-23T00:48:48.546Z,14.00
2023-04-23T00:53:53.190Z,13.97
2023-04-23T00:56:24.107Z,13.95
2023-04-23T00:58:54.700Z,13.93
2023-04-23T01:01:26.325Z,13.91
2023-04-23T01:03:57.012Z,13.90
2023-04-23T01:06:29.130Z,13.90
2023-04-23T01:09:02.066Z,13.90
2023-04-23T01:11:32.634Z,13.90
2023-04-23T01:14:02.619Z,13.90
2023-04-23T01:16:32.606Z,13.90
2023-04-23T01:19:02.634Z,13.90
2023-04-23T01:21:33.455Z,13.87
2023-04-23T01:24:06.413Z,13.87
2023-04-23T01:26:37.035Z,13.87
2023-04-23T01:29:07.132Z,13.87
2023-04-23T01:31:37.290Z,13.87
2023-04-23T01:34:07.475Z,13.86
2023-04-23T01:36:38.716Z,13.87
2023-04-23T01:39:11.823Z,13.86
2023-04-23T01:41:43.039Z,13.86
2023-04-23T01:44:13.190Z,13.86
2023-04-23T01:46:43.457Z,13.85
2023-04-23T01:49:13.888Z,13.84
2023-04-23T01:51:44.246Z,13.82
2023-04-23T01:54:16.803Z,13.81
2023-04-23T01:56:47.230Z,13.80
2023-04-23T01:59:17.068Z,13.77
2023-04-23T02:01:49.229Z,13.74
2023-04-23T02:04:20.354Z,13.71
2023-04-23T02:06:53.122Z,13.68
2023-04-23T02:09:25.620Z,13.61
2023-04-23T02:11:55.501Z,13.56
2023-04-23T02:14:25.761Z,13.49
2023-04-23T02:16:56.131Z,13.46
2023-04-23T02:19:26.690Z,13.38
2023-04-23T02:21:56.766Z,13.33
2023-04-23T02:24:29.413Z,13.28
2023-04-23T02:26:59.903Z,13.24
2023-04-23T02:29:29.789Z,13.20
2023-04-23T02:31:59.961Z,13.16
2023-04-23T02:34:30.024Z,13.11
2023-04-23T02:36:59.866Z,13.07
2023-04-23T02:39:32.660Z,13.03
2023-04-23T02:42:02.785Z,12.99
2023-04-23T02:44:32.688Z,12.93
2023-04-23T02:47:02.745Z,12.89
2023-04-23T02:49:32.844Z,12.86
2023-04-23T02:52:02.730Z,12.84
2023-04-23T02:54:37.259Z,12.80
2023-04-23T02:57:07.563Z,12.75
2023-04-23T02:59:37.551Z,12.73
2023-04-23T03:02:07.528Z,12.68
2023-04-23T03:04:37.749Z,12.67
2023-04-23T03:07:07.680Z,12.64
2023-04-23T03:09:40.477Z,12.63
2023-04-23T03:12:10.765Z,12.61
2023-04-23T03:14:41.245Z,12.59
2023-04-23T03:17:11.414Z,12.58
2023-04-23T03:19:41.305Z,12.57
2023-04-23T03:22:11.316Z,12.56
2023-04-23T03:24:43.990Z,12.54
2023-04-23T03:27:13.948Z,12.51
2023-04-23T03:29:44.296Z,12.45
2023-04-23T03:32:15.672Z,12.42
2023-04-23T03:34:45.555Z,12.34
2023-04-23T03:37:17.206Z,12.30
2023-04-23T03:39:49.871Z,12.23
2023-04-23T03:42:19.914Z,12.19
2023-04-23T03:44:49.832Z,12.18
2023-04-23T03:47:19.736Z,12.15
2023-04-23T03:49:49.773Z,12.15
2023-04-23T03:52:20.002Z,12.15
2023-04-23T03:54:52.672Z,12.15
2023-04-23T03:57:24.502Z,12.14
2023-04-23T03:59:54.362Z,12.13
2023-04-23T04:02:24.683Z,12.13
2023-04-23T04:04:55.450Z,12.15
2023-04-23T04:07:26.136Z,12.13
2023-04-23T04:09:58.690Z,12.13
2023-04-23T04:12:28.775Z,12.12
2023-04-23T04:14:58.953Z,12.10
2023-04-23T04:17:29.008Z,12.09
2023-04-23T04:19:58.938Z,12.06
2023-04-23T04:22:28.846Z,12.04
2023-04-23T04:25:01.324Z,12.03
2023-04-23T04:27:33.638Z,12.03
2023-04-23T04:30:05.754Z,12.05
2023-04-23T04:32:36.044Z,12.05
2023-04-23T04:35:05.977Z,12.03
2023-04-23T04:37:37.079Z,11.97
2023-04-23T04:40:11.793Z,11.94
2023-04-23T04:42:42.978Z,11.90
2023-04-23T04:45:14.082Z,11.90
2023-04-23T04:47:44.097Z,11.89
2023-04-23T04:50:14.745Z,11.91
2023-04-23T04:52:47.808Z,11.92
2023-04-23T04:55:20.326Z,11.90
2023-04-23T04:57:50.426Z,11.92
2023-04-23T05:00:28.021Z,11.95
2023-04-23T05:02:58.858Z,12.00
2023-04-23T05:05:30.416Z,12.03
2023-04-23T05:08:02.608Z,12.07
2023-04-23T05:10:35.307Z,12.12
2023-04-23T05:13:05.305Z,12.18
2023-04-23T05:15:35.198Z,12.23
2023-04-23T05:18:06.847Z,12.24
2023-04-23T05:20:37.013Z,12.26
2023-04-23T05:23:07.186Z,12.28
2023-04-23T05:25:39.953Z,12.30
2023-04-23T05:28:10.152Z,12.30
2023-04-23T05:30:40.153Z,12.30
2023-04-23T05:33:10.254Z,12.35
2023-04-23T05:35:40.301Z,12.42
2023-04-23T05:38:10.411Z,12.43
2023-04-23T05:40:43.040Z,12.45
2023-04-23T05:43:13.190Z,12.47
2023-04-23T05:45:46.268Z,12.49
2023-04-23T05:48:16.314Z,12.49
2023-04-23T05:50:46.671Z,12.50
2023-04-23T05:53:18.209Z,12.51
2023-04-23T05:55:50.932Z,12.50
2023-04-23T05:58:21.037Z,12.52
2023-04-23T06:00:50.995Z,12.56
2023-04-23T06:03:21.288Z,12.56
2023-04-23T06:05:51.505Z,12.56
2023-04-23T06:08:23.281Z,12.56
2023-04-23T06:10:57.237Z,12.61
2023-04-23T06:13:28.579Z,12.61
2023-04-23T06:15:58.470Z,12.65
2023-04-23T06:18:28.534Z,12.69
2023-04-23T06:20:58.375Z,12.77
2023-04-23T06:23:29.459Z,12.80
2023-04-23T06:26:02.074Z,12.81
2023-04-23T06:28:31.976Z,12.85
2023-04-23T06:31:02.894Z,12.89
2023-04-23T06:33:33.038Z,12.95
2023-04-23T06:36:03.059Z,13.00
2023-04-23T06:38:32.990Z,13.06
2023-04-23T06:41:06.470Z,13.08
2023-04-23T06:43:36.495Z,13.09
2023-04-23T06:46:06.416Z,13.14
2023-04-23T06:48:37.807Z,13.18
2023-04-23T06:51:08.345Z,13.23
2023-04-23T06:53:39.149Z,13.26
2023-04-23T06:56:12.140Z,13.28
2023-04-23T06:58:42.042Z,13.36
2023-04-23T07:01:12.164Z,13.54
2023-04-23T07:03:45.320Z,13.72
2023-04-23T07:06:15.392Z,13.86
2023-04-23T07:08:45.979Z,14.00
2023-04-23T07:11:18.554Z,14.25
2023-04-23T07:13:49.268Z,14.43
2023-04-23T07:16:21.694Z,14.59
2023-04-23T07:18:52.890Z,14.95
2023-04-23T07:21:22.863Z,15.27
2023-04-23T07:23:52.842Z,15.58
2023-04-23T07:26:25.658Z,15.90
2023-04-23T07:28:55.879Z,16.20
2023-04-23T07:31:26.211Z,16.49
2023-04-23T07:33:56.484Z,16.69
2023-04-23T07:36:26.834Z,16.88
2023-04-23T07:38:59.436Z,17.09
2023-04-23T07:41:32.067Z,17.33
2023-04-23T07:44:02.027Z,17.40
2023-04-23T07:46:32.367Z,17.61
2023-04-23T07:49:02.364Z,17.80
2023-04-23T07:51:32.343Z,17.91
2023-04-23T07:54:02.387Z,18.02
2023-04-23T07:56:35.404Z,18.18
2023-04-23T07:59:05.493Z,18.23
2023-04-23T08:01:36.092Z,18.31
2023-04-23T08:04:06.230Z,18.45
2023-04-23T08:06:39.628Z,18.72
2023-04-23T08:09:10.086Z,18.93
2023-04-23T08:11:42.743Z,19.09
2023-04-23T08:14:12.892Z,19.19
2023-04-23T08:16:42.768Z,19.30
2023-04-23T08:19:12.764Z,19.42
2023-04-23T08:21:42.776Z,19.40
2023-04-23T08:24:12.773Z,19.41
2023-04-23T08:26:45.332Z,19.62
2023-04-23T08:29:15.346Z,19.66
2023-04-23T08:31:45.428Z,19.75
2023-04-23T08:34:15.805Z,19.88
2023-04-23T08:36:46.609Z,19.92
2023-04-23T08:39:19.099Z,20.00
2023-04-23T08:41:57.858Z,20.20
2023-04-23T08:44:29.485Z,20.28
2023-04-23T08:47:01.195Z,20.43
2023-04-23T08:49:36.660Z,20.55
2023-04-23T08:52:17.947Z,20.45
2023-04-23T08:54:52.366Z,20.44
2023-04-23T08:57:25.698Z,20.48
2023-04-23T08:59:56.372Z,20.41
2023-04-23T09:02:27.361Z,20.41
2023-04-23T09:04:57.736Z,20.66
2023-04-23T09:07:28.019Z,20.56
2023-04-23T09:09:57.848Z,20.37
2023-04-23T09:12:30.913Z,20.53
2023-04-23T09:15:00.935Z,20.65
2023-04-23T09:17:33.103Z,20.85
2023-04-23T09:20:04.168Z,20.96
2023-04-23T09:22:47.076Z,21.17
2023-04-23T09:25:19.594Z,21.40
2023-04-23T09:27:54.311Z,21.27
2023-04-23T09:30:25.883Z,21.04
2023-04-23T09:32:58.295Z,20.80
2023-04-23T09:35:31.616Z,21.08
2023-04-23T09:38:08.170Z,21.36
2023-04-23T09:40:39.072Z,21.24
2023-04-23T09:43:14.039Z,21.14
2023-04-23T09:45:51.681Z,21.12
2023-04-23T09:48:21.670Z,21.17
2023-04-23T09:50:51.604Z,21.32
2023-04-23T09:53:24.361Z,21.21
2023-04-23T09:55:56.499Z,21.57
2023-04-23T09:58:29.210Z,21.86
2023-04-23T10:01:10.491Z,21.29
2023-04-23T10:03:46.231Z,21.48
2023-04-23T10:06:36.387Z,21.55
2023-04-23T10:09:08.388Z,21.86
2023-04-23T10:11:38.465Z,22.22
2023-04-23T10:14:12.124Z,22.31
2023-04-23T10:16:49.128Z,22.23
2023-04-23T10:19:22.837Z,22.23
2023-04-23T10:22:02.352Z,22.23
2023-04-23T10:24:43.819Z,22.10
2023-04-23T10:27:27.004Z,21.99
2023-04-23T10:30:10.827Z,21.70
2023-04-23T10:32:41.949Z,21.71
2023-04-23T10:35:13.111Z,21.88
2023-04-23T10:37:43.536Z,22.04
2023-04-23T10:40:16.529Z,22.20
2023-04-23T10:42:47.635Z,22.44
2023-04-23T10:45:25.437Z,22.62
2023-04-23T10:47:58.081Z,22.85
2023-04-23T10:50:30.162Z,22.74
2023-04-23T10:53:01.074Z,22.12
2023-04-23T10:55:33.004Z,22.09
2023-04-23T10:58:05.449Z,22.34
2023-04-23T11:00:49.163Z,22.58
2023-04-23T11:03:32.430Z,22.77
2023-04-23T11:06:05.171Z,22.80
2023-04-23T11:08:37.815Z,22.96
2023-04-23T11:11:11.338Z,22.97
2023-04-23T11:13:54.564Z,22.72
2023-04-23T11:16:27.289Z,22.67
2023-04-23T11:19:06.848Z,22.49
2023-04-23T11:22:01.770Z,22.47
2023-04-23T11:24:33.467Z,22.69
2023-04-23T11:27:04.540Z,22.55
2023-04-23T11:29:34.435Z,22.47
2023-04-23T11:32:10.993Z,22.53
2023-04-23T11:34:43.660Z,22.60
2023-04-23T11:37:15.811Z,22.64
2023-04-23T11:39:47.815Z,22.67
2023-04-23T11:42:20.438Z,22.72
2023-04-23T11:44:50.993Z,22.70
2023-04-23T11:47:23.836Z,22.64
2023-04-23T11:49:53.732Z,22.41
2023-04-23T11:52:23.719Z,22.45
2023-04-23T11:54:53.587Z,22.52
2023-04-23T11:57:24.834Z,22.56
2023-04-23T11:59:56.906Z,22.46
2023-04-23T12:02:29.985Z,22.41
2023-04-23T12:04:59.993Z,22.10
2023-04-23T12:07:38.356Z,21.98
2023-04-23T12:10:09.462Z,22.10
2023-04-23T12:12:40.650Z,22.27
2023-04-23T12:15:11.649Z,22.41
2023-04-23T12:17:46.827Z,22.46
2023-04-23T12:20:21.396Z,22.46
2023-04-23T12:22:51.720Z,22.51
2023-04-23T12:25:25.741Z,22.53
2023-04-23T12:27:55.628Z,22.17
2023-04-23T12:30:25.779Z,22.12
2023-04-23T12:33:02.695Z,22.20
2023-04-23T12:35:43.135Z,22.25
2023-04-23T12:38:27.530Z,22.14
2023-04-23T12:40:58.581Z,22.34
2023-04-23T12:43:30.194Z,22.24
2023-04-23T12:46:00.220Z,22.01
2023-04-23T12:48:33.382Z,21.99
2023-04-23T12:51:04.987Z,22.30
2023-04-23T12:53:34.913Z,22.59
2023-04-23T12:56:05.295Z,22.58
2023-04-23T12:58:35.246Z,22.54
2023-04-23T13:01:05.290Z,22.48
2023-04-23T13:03:37.814Z,22.69
2023-04-23T13:06:08.220Z,22.84
2023-04-23T13:08:38.310Z,23.01
2023-04-23T13:11:08.528Z,23.00
2023-04-23T13:13:38.381Z,23.09
2023-04-23T13:16:08.684Z,22.98
2023-04-23T13:18:41.327Z,22.97
2023-04-23T13:21:12.727Z,22.96
2023-04-23T13:23:42.559Z,23.13
2023-04-23T13:26:12.610Z,23.31
2023-04-23T13:28:43.024Z,23.34
2023-04-23T13:31:15.415Z,23.33
2023-04-23T13:33:47.950Z,23.13
2023-04-23T13:36:17.895Z,22.87
2023-04-23T13:38:47.821Z,22.87
2023-04-23T13:41:17.727Z,22.75
2023-04-23T13:43:47.627Z,22.81
2023-04-23T13:46:17.603Z,22.89
2023-04-23T13:48:50.145Z,22.92
2023-04-23T13:51:34.134Z,22.75
2023-04-23T13:54:05.149Z,22.64
2023-04-23T13:56:37.182Z,22.59
2023-04-23T13:59:18.420Z,22.47
2023-04-23T14:01:50.353Z,22.44
2023-04-23T14:04:25.536Z,22.40
2023-04-23T14:06:55.908Z,22.39
2023-04-23T14:09:26.151Z,22.52
2023-04-23T14:11:56.379Z,22.48
2023-04-23T14:14:26.295Z,22.45
2023-04-23T14:16:56.229Z,22.42
2023-04-23T14:19:30.648Z,22.46
2023-04-23T14:22:00.633Z,22.53
2023-04-23T14:24:37.548Z,22.37
2023-04-23T14:27:07.715Z,22.32
2023-04-23T14:29:43.268Z,22.31
2023-04-23T14:32:13.986Z,22.24
2023-04-23T14:34:47.529Z,22.16
2023-04-23T14:37:17.781Z,22.22
2023-04-23T14:39:47.724Z,21.99
2023-04-23T14:42:18.013Z,21.94
2023-04-23T14:44:47.943Z,21.98
2023-04-23T14:47:19.600Z,22.03
2023-04-23T14:49:53.394Z,22.01
2023-04-23T14:52:26.125Z,21.96
2023-04-23T14:54:56.183Z,21.92
2023-04-23T14:57:26.364Z,21.85
2023-04-23T14:59:56.698Z,21.78
2023-04-23T15:02:27.139Z,21.64
2023-04-23T15:04:59.991Z,21.71
2023-04-23T15:07:31.993Z,21.76
2023-04-23T15:10:06.475Z,21.73
2023-04-23T15:12:53.409Z,21.62
2023-04-23T15:15:48.500Z,21.63
2023-04-23T15:18:19.217Z,21.62
2023-04-23T15:20:51.777Z,21.54
2023-04-23T15:23:22.342Z,21.49
2023-04-23T15:25:52.714Z,21.46
2023-04-23T15:28:23.785Z,21.36
2023-04-23T15:30:53.746Z,21.29
2023-04-23T15:33:23.626Z,21.21
2023-04-23T15:35:59.839Z,20.86
2023-04-23T15:38:30.900Z,20.63
2023-04-23T15:41:01.281Z,20.54
2023-04-23T15:43:31.653Z,20.48
2023-04-23T15:46:01.733Z,20.45
2023-04-23T15:48:31.742Z,20.36
2023-04-23T15:51:04.388Z,20.30
2023-04-23T15:53:34.381Z,20.27
2023-04-23T15:56:05.098Z,20.14
2023-04-23T15:58:35.071Z,19.97
2023-04-23T16:01:07.628Z,19.87
2023-04-23T16:03:37.880Z,19.74
2023-04-23T16:06:12.043Z,19.53
2023-04-23T16:08:42.631Z,19.24
2023-04-23T16:11:13.526Z,19.17
2023-04-23T16:13:43.506Z,19.15
2023-04-23T16:16:13.438Z,19.19
2023-04-23T16:18:43.503Z,19.12
2023-04-23T16:21:16.450Z,19.10
2023-04-23T16:23:46.392Z,19.03
2023-04-23T16:26:16.303Z,19.08
2023-04-23T16:28:51.853Z,19.12
2023-04-23T16:31:31.019Z,19.14
2023-04-23T16:34:01.296Z,19.15
2023-04-23T16:36:37.221Z,19.04
2023-04-23T16:39:07.275Z,18.97
2023-04-23T16:41:37.276Z,18.83
2023-04-23T16:44:07.224Z,18.73
2023-04-23T16:46:37.438Z,18.71
2023-04-23T16:49:07.737Z,18.75
2023-04-23T16:51:40.324Z,18.74
2023-04-23T16:54:10.301Z,18.77
2023-04-23T16:56:40.339Z,18.69
2023-04-23T16:59:10.215Z,18.56
2023-04-23T17:01:40.318Z,18.51
2023-04-23T17:04:10.801Z,18.40
2023-04-23T17:06:43.506Z,18.31
2023-04-23T17:09:13.452Z,18.27
2023-04-23T17:11:43.296Z,18.06
2023-04-23T17:14:13.325Z,17.92
2023-04-23T17:16:43.686Z,17.94
2023-04-23T17:19:13.861Z,17.79
2023-04-23T17:21:46.746Z,17.85
2023-04-23T17:24:16.790Z,17.98
2023-04-23T17:26:48.476Z,18.05
2023-04-23T17:29:18.439Z,18.02
2023-04-23T17:31:48.599Z,17.99
2023-04-23T17:34:18.783Z,17.99
2023-04-23T17:36:51.642Z,17.97
2023-04-23T17:39:23.891Z,17.91
2023-04-23T17:41:53.940Z,17.85
2023-04-23T17:44:23.984Z,17.78
2023-04-23T17:46:55.574Z,17.70
2023-04-23T17:49:25.522Z,17.61
2023-04-23T17:51:58.140Z,17.49
2023-04-23T17:54:29.064Z,17.40
2023-04-23T17:56:59.346Z,17.30
2023-04-23T17:59:29.360Z,17.20
2023-04-23T18:01:59.476Z,17.16
2023-04-23T18:04:30.719Z,17.16
2023-04-23T18:07:03.449Z,17.10
2023-04-23T18:09:33.529Z,17.03
2023-04-23T18:12:04.303Z,16.95
2023-04-23T18:14:34.303Z,16.87
2023-04-23T18:17:04.382Z,16.80
2023-04-23T18:19:34.479Z,16.78
2023-04-23T18:22:08.481Z,16.80
2023-04-23T18:24:38.616Z,16.77
2023-04-23T18:27:08.630Z,16.71
2023-04-23T18:29:38.750Z,16.65
2023-04-23T18:32:08.868Z,16.46
2023-04-23T18:34:41.995Z,16.46
2023-04-23T18:37:35.628Z,16.42
2023-04-23T18:40:05.938Z,16.42
2023-04-23T18:42:35.931Z,16.42
2023-04-23T18:45:06.318Z,16.41
2023-04-23T18:47:44.368Z,16.37
2023-04-23T18:50:33.683Z,16.34
2023-04-23T18:53:06.419Z,16.35
2023-04-23T18:55:38.214Z,16.33
2023-04-23T18:58:08.981Z,16.28
2023-04-23T19:00:40.470Z,16.23
2023-04-23T19:03:23.665Z,16.21
2023-04-23T19:05:55.728Z,16.17
2023-04-23T19:08:29.044Z,16.11
2023-04-23T19:10:59.575Z,16.04
2023-04-23T19:13:29.579Z,16.05
2023-04-23T19:15:59.803Z,16.09
2023-04-23T19:18:31.117Z,16.10
2023-04-23T19:21:01.339Z,16.08
2023-04-23T19:23:33.888Z,16.10
2023-04-23T19:26:04.133Z,16.13
2023-04-23T19:28:34.822Z,16.11
2023-04-23T19:31:06.863Z,16.03
2023-04-23T19:33:37.756Z,16.00
2023-04-23T19:36:08.250Z,16.00
2023-04-23T19:38:42.549Z,15.93
2023-04-23T19:41:12.599Z,15.92
2023-04-23T19:43:42.744Z,15.95
2023-04-23T19:46:12.866Z,16.00
2023-04-23T19:48:42.805Z,15.93
2023-04-23T19:51:12.852Z,15.87
2023-04-23T19:53:45.557Z,15.89
2023-04-23T19:56:15.721Z,15.86
2023-04-23T19:58:46.087Z,15.86
2023-04-23T20:01:16.239Z,15.89
2023-04-23T20:03:48.122Z,15.80
2023-04-23T20:06:18.195Z,15.77
2023-04-23T20:09:07.841Z,15.69
2023-04-23T20:11:38.573Z,15.63
2023-04-23T20:14:08.637Z,15.63
2023-04-23T20:16:39.024Z,15.58
2023-04-23T20:19:11.778Z,15.53
2023-04-23T20:21:42.946Z,15.50
2023-04-23T20:24:16.950Z,15.44
2023-04-23T20:26:46.907Z,15.42
2023-04-23T20:29:17.210Z,15.39
2023-04-23T20:31:49.657Z,15.37
2023-04-23T20:34:21.528Z,15.32
2023-04-23T20:36:51.424Z,15.12
2023-04-23T20:39:24.509Z,14.98
2023-04-23T20:41:55.171Z,14.89
2023-04-23T20:44:26.322Z,14.84
2023-04-23T20:46:58.046Z,14.72
2023-04-23T20:49:28.234Z,14.65
2023-04-23T20:51:58.153Z,14.57
2023-04-23T20:54:31.332Z,14.46
2023-04-23T20:57:02.570Z,14.42
2023-04-23T20:59:32.915Z,14.39
2023-04-23T21:02:04.068Z,14.37
2023-04-23T21:04:34.075Z,14.29
2023-04-23T21:07:04.308Z,14.20
2023-04-23T21:09:37.170Z,14.16
2023-04-23T21:12:07.759Z,14.12
2023-04-23T21:14:37.653Z,14.08
2023-04-23T21:17:07.638Z,13.97
2023-04-23T21:19:37.589Z,13.97
2023-04-23T21:22:08.897Z,13.92
2023-04-23T21:24:41.628Z,13.65
2023-04-23T21:27:12.568Z,13.69
2023-04-23T21:29:42.757Z,13.67
2023-04-23T21:32:13.038Z,13.64
2023-04-23T21:34:43.142Z,13.66
2023-04-23T21:37:13.238Z,13.69
2023-04-23T21:39:46.046Z,13.72
2023-04-23T21:42:16.343Z,13.71
2023-04-23T21:44:46.456Z,13.72
2023-04-23T21:47:16.770Z,13.66
2023-04-23T21:49:46.841Z,13.61
2023-04-23T21:52:17.635Z,13.57
2023-04-23T21:54:50.333Z,13.61
2023-04-23T21:57:20.274Z,13.67
2023-04-23T21:59:50.518Z,13.58
2023-04-23T22:02:20.571Z,13.56
2023-04-23T22:04:50.692Z,13.52
2023-04-23T22:07:21.052Z,13.52
2023-04-23T22:09:53.634Z,13.51
2023-04-23T22:12:23.757Z,13.49
2023-04-23T22:14:54.096Z,13.58
2023-04-23T22:17:26.477Z,13.59
2023-04-23T22:19:57.267Z,13.56
2023-04-23T22:22:27.219Z,13.64
2023-04-23T22:24:59.799Z,13.60
2023-04-23T22:27:34.751Z,13.62
2023-04-23T22:30:06.834Z,13.66
2023-04-23T22:32:36.883Z,13.63
2023-04-23T22:35:08.093Z,13.72
2023-04-23T22:37:38.592Z,13.76
2023-04-23T22:40:13.073Z,13.65
2023-04-23T22:42:42.943Z,13.68
2023-04-23T22:45:13.772Z,13.68
2023-04-23T22:47:44.228Z,13.66
2023-04-23T22:50:14.528Z,13.70
2023-04-23T22:52:48.021Z,13.69
2023-04-23T22:55:20.883Z,13.63
2023-04-23T22:57:51.385Z,13.68
2023-04-23T23:00:21.357Z,13.72
2023-04-23T23:02:51.326Z,13.69
2023-04-23T23:05:21.638Z,13.65
2023-04-23T23:07:52.126Z,13.70
2023-04-23T23:10:24.623Z,13.66
2023-04-23T23:12:54.489Z,13.61
2023-04-23T23:15:24.787Z,13.46
2023-04-23T23:17:54.778Z,13.47
2023-04-23T23:20:24.886Z,13.46
2023-04-23T23:22:54.816Z,13.49
2023-04-23T23:25:27.334Z,13.48
2023-04-23T23:27:57.289Z,13.44
2023-04-23T23:30:27.344Z,13.39
2023-04-23T23:32:59.917Z,13.37
2023-04-23T23:35:30.185Z,13.40
2023-04-23T23:38:00.114Z,13.37
2023-04-23T23:40:32.797Z,13.37
2023-04-23T23:43:02.669Z,13.32
2023-04-23T23:45:32.722Z,13.30
2023-04-23T23:48:02.732Z,13.24
2023-04-23T23:50:32.704Z,13.27
2023-04-23T23:53:02.661Z,13.22
2023-04-23T23:55:37.891Z,13.23
2023-04-23T23:58:07.774Z,13.16
